BIRK

Reykjavik Airport

Reykjavik, Iceland
TAF BIRK 181047Z 1812/1912 33014KT 9999 FEW025 TX12/1815Z TN06/1906Z TEMPO 1900/1912 -RA BKN015 OVC030 BECMG 1901/1903 36004KT
Issued Valid From Valid To
Jun-18 @ 10:47 UTC
(3 hours ago)
Jun-18 @ 12:00 UTC
(an hour ago)
Jun-19 @ 12:00 UTC
(in 23 hours)
Jun-18 @ 12:00 to Jun-19 @ 01:00
TAF BIRK 181047Z 1812/1912 33014KT 9999 FEW025 TX12/1815Z TN06/1906Z
Wind Visibility Clouds
330° at 14 knots 10,000+ meters
  • Few at 2,500' AGL
Temporary Jun-19 @ 00:00 to Jun-19 @ 12:00
TEMPO 1900/1912 -RA BKN015 OVC030
Clouds Conditions
  • Broken at 1,500' AGL
  • Overcast at 3,000' AGL
  • Light Rain
Becoming Jun-19 @ 01:00 to Jun-19 @ 12:00
BECMG 1901/1903 36004KT
Wind Visibility Clouds
360° at 4 knots 10,000+ meters
  • Few at 2,500' AGL
TAF BIRK 181047Z 1812/1912 33014KT 9999 FEW025 TX12/1815Z TN06/1906Z TEMPO 1900/1912 -RA BKN015 OVC030 BECMG 1901/1903 36004KT
Issued Jun-18 @ 10:47 UTC
(3 hours ago)
Valid From Jun-18 @ 12:00 UTC
(an hour ago)
Valid To Jun-19 @ 12:00 UTC
(in 23 hours)
Jun-18 @ 12:00 - Jun-19 @ 01:00
Wind Visibility
330° at 14 knots 10,000+ meters
Clouds
  • Few at 2,500' AGL
Temporary Jun-19 @ 00:00 - Jun-19 @ 12:00
Clouds
  • Broken at 1,500' AGL
  • Overcast at 3,000' AGL
Conditions
  • Light Rain
Becoming Jun-19 @ 01:00 - Jun-19 @ 12:00
Wind Visibility
360° at 4 knots 10,000+ meters
Clouds
  • Few at 2,500' AGL